createdAt,value
2019-02-04T00:00:30.382Z,24.8
2019-02-04T00:01:19.905Z,24.8
2019-02-04T00:02:09.615Z,24.9
2019-02-04T00:03:00.535Z,25
2019-02-04T00:03:50.903Z,25.1
2019-02-04T00:04:40.127Z,25.3
2019-02-04T00:05:30.435Z,25.4
2019-02-04T00:06:20.489Z,25.5
2019-02-04T00:07:14.180Z,25.6
2019-02-04T00:08:00.985Z,25.8
2019-02-04T00:08:50.415Z,25.9
2019-02-04T00:09:40.854Z,25.9
2019-02-04T00:10:32.047Z,26.1
2019-02-04T00:11:20.947Z,26.1
2019-02-04T00:12:11.172Z,26
2019-02-04T00:13:00.959Z,25.9
2019-02-04T00:13:51.317Z,25.8
2019-02-04T00:14:41.367Z,25.7
2019-02-04T00:15:31.187Z,25.6
2019-02-04T00:16:23.632Z,25.5
2019-02-04T00:17:11.517Z,25.4
2019-02-04T00:18:01.040Z,25.3
2019-02-04T00:18:50.909Z,25.3
2019-02-04T00:19:42.862Z,25.2
2019-02-04T00:20:30.925Z,25.1
2019-02-04T00:21:21.654Z,25.1
2019-02-04T00:22:11.859Z,25
2019-02-04T00:23:01.912Z,24.9
2019-02-04T00:23:51.434Z,24.9
2019-02-04T00:24:42.084Z,24.8
2019-02-04T00:25:33.832Z,24.8
2019-02-04T00:26:21.409Z,24.9
2019-02-04T00:27:12.696Z,24.9
2019-02-04T00:28:02.869Z,25
2019-02-04T00:28:53.828Z,25.1
2019-02-04T00:29:42.421Z,25.2
2019-02-04T00:30:32.393Z,25.3
2019-02-04T00:31:22.501Z,25.4
2019-02-04T00:32:12.841Z,25.6
2019-02-04T00:33:02.693Z,25.7
2019-02-04T00:33:53.173Z,25.8
2019-02-04T00:34:44.025Z,25.9
2019-02-04T00:35:32.799Z,26
2019-02-04T00:36:23.116Z,26.1
2019-02-04T00:37:12.628Z,26.2
2019-02-04T00:38:05.357Z,26.2
2019-02-04T00:38:53.547Z,26.1
2019-02-04T00:39:42.503Z,26
2019-02-04T00:40:47.468Z,25.9
2019-02-04T00:41:23.433Z,25.8
2019-02-04T00:42:12.500Z,25.7
2019-02-04T00:43:03.896Z,25.6
2019-02-04T00:43:54.770Z,25.5
2019-02-04T00:44:43.440Z,25.4
2019-02-04T00:45:34.087Z,25.3
2019-02-04T00:46:23.610Z,25.3
2019-02-04T00:47:16.225Z,25.3
2019-02-04T00:48:04.009Z,25.2
2019-02-04T00:48:54.045Z,25.1
2019-02-04T00:49:44.274Z,25.1
2019-02-04T00:50:33.793Z,25.1
2019-02-04T00:51:24.525Z,25
2019-02-04T00:52:13.922Z,25
2019-02-04T00:53:05.331Z,24.9
2019-02-04T00:53:54.609Z,24.9
2019-02-04T00:54:58.198Z,24.9
2019-02-04T00:55:34.489Z,24.9
2019-02-04T00:56:27.145Z,24.9
2019-02-04T00:57:14.309Z,25
2019-02-04T00:58:04.597Z,25.1
2019-02-04T00:58:55.027Z,25.2
2019-02-04T00:59:44.172Z,25.3
2019-02-04T01:00:35.160Z,25.4
2019-02-04T01:01:24.279Z,25.6
2019-02-04T01:02:15.624Z,25.7
2019-02-04T01:03:04.225Z,25.8
2019-02-04T01:03:54.994Z,25.9
2019-02-04T01:04:45.356Z,26.1
2019-02-04T01:05:37.351Z,26.1
2019-02-04T01:06:25.506Z,26.2
2019-02-04T01:07:14.979Z,26.2
2019-02-04T01:08:05.288Z,26.1
2019-02-04T01:08:55.346Z,26
2019-02-04T01:09:44.569Z,25.9
2019-02-04T01:10:35.615Z,25.8
2019-02-04T01:11:25.964Z,25.7
2019-02-04T01:12:15.861Z,25.6
2019-02-04T01:13:05.928Z,25.5
2019-02-04T01:13:55.691Z,25.4
2019-02-04T01:14:47.911Z,25.4
2019-02-04T01:15:35.085Z,25.3
2019-02-04T01:16:26.228Z,25.3
2019-02-04T01:17:16.063Z,25.2
2019-02-04T01:18:05.972Z,25.1
2019-02-04T01:18:55.785Z,25.1
2019-02-04T01:19:45.701Z,25.1
2019-02-04T01:20:35.067Z,25.1
2019-02-04T01:21:25.937Z,25.1
2019-02-04T01:22:15.879Z,24.9
2019-02-04T01:23:06.536Z,24.9
2019-02-04T01:23:58.312Z,24.9
2019-02-04T01:24:48.436Z,24.9
2019-02-04T01:25:36.482Z,25
2019-02-04T01:26:25.396Z,25.1
2019-02-04T01:27:17.598Z,25.1
2019-02-04T01:28:05.234Z,25.3
2019-02-04T01:28:56.062Z,25.4
2019-02-04T01:29:46.418Z,25.5
2019-02-04T01:30:36.776Z,25.6
2019-02-04T01:31:25.694Z,25.8
2019-02-04T01:32:16.886Z,25.9
2019-02-04T01:33:07.824Z,26
2019-02-04T01:33:57.393Z,26.1
2019-02-04T01:34:50.004Z,26.2
2019-02-04T01:35:36.981Z,26.3
2019-02-04T01:36:29.276Z,26.2
2019-02-04T01:37:16.738Z,26.1
2019-02-04T01:38:07.048Z,25.9
2019-02-04T01:38:57.057Z,25.8
2019-02-04T01:39:47.410Z,25.7
2019-02-04T01:40:37.471Z,25.6
2019-02-04T01:41:27.490Z,25.5
2019-02-04T01:42:17.563Z,25.4
2019-02-04T01:43:07.898Z,25.4
2019-02-04T01:43:57.134Z,25.3
2019-02-04T01:44:46.905Z,25.3
2019-02-04T01:45:40.370Z,25.3
2019-02-04T01:46:27.863Z,25.2
2019-02-04T01:47:24.780Z,25.1
2019-02-04T01:48:07.192Z,25.1
2019-02-04T01:48:58.477Z,25.1
2019-02-04T01:49:47.577Z,25.1
2019-02-04T01:50:37.880Z,25
2019-02-04T01:51:27.807Z,24.9
2019-02-04T01:52:32.959Z,24.9
2019-02-04T01:53:08.042Z,24.9
2019-02-04T01:53:58.090Z,25
2019-02-04T01:54:50.592Z,25.1
2019-02-04T01:55:38.215Z,25.1
2019-02-04T01:56:28.307Z,25.3
2019-02-04T01:57:18.690Z,25.3
2019-02-04T01:58:07.577Z,25.4
2019-02-04T01:58:58.472Z,25.6
2019-02-04T01:59:48.587Z,25.7
2019-02-04T02:00:38.127Z,25.8
2019-02-04T02:01:28.909Z,25.9
2019-02-04T02:02:17.870Z,26.1
2019-02-04T02:03:08.879Z,26.2
2019-02-04T02:04:00.639Z,26.2
2019-02-04T02:04:48.571Z,26.1
2019-02-04T02:05:38.092Z,26.1
2019-02-04T02:06:28.117Z,25.9
2019-02-04T02:07:21.099Z,25.8
2019-02-04T02:08:08.614Z,25.8
2019-02-04T02:08:59.151Z,25.6
2019-02-04T02:09:48.934Z,25.5
2019-02-04T02:10:38.478Z,25.4
2019-02-04T02:11:28.276Z,25.4
2019-02-04T02:12:18.250Z,25.3
2019-02-04T02:13:10.576Z,25.3
2019-02-04T02:13:58.653Z,25.2
2019-02-04T02:14:49.561Z,25.2
2019-02-04T02:15:39.344Z,25.1
2019-02-04T02:16:34.285Z,25.1
2019-02-04T02:17:31.593Z,25.1
2019-02-04T02:18:10.125Z,25.1
2019-02-04T02:18:59.671Z,25
2019-02-04T02:19:50.046Z,24.9
2019-02-04T02:20:40.346Z,24.9
2019-02-04T02:21:30.301Z,24.9
2019-02-04T02:22:21.014Z,25
2019-02-04T02:23:10.168Z,25.1
2019-02-04T02:24:00.254Z,25.1
2019-02-04T02:24:49.818Z,25.2
2019-02-04T02:25:42.827Z,25.3
2019-02-04T02:26:30.333Z,25.4
2019-02-04T02:27:20.805Z,25.6
2019-02-04T02:28:10.508Z,25.7
2019-02-04T02:29:02.437Z,25.8
2019-02-04T02:29:50.707Z,25.9
2019-02-04T02:30:40.542Z,26
2019-02-04T02:31:31.099Z,26.1
2019-02-04T02:32:20.848Z,26.2
2019-02-04T02:33:11.616Z,26.2
2019-02-04T02:33:59.877Z,26.1
2019-02-04T02:34:53.515Z,26
2019-02-04T02:35:40.507Z,25.9
2019-02-04T02:36:29.982Z,25.8
2019-02-04T02:37:21.267Z,25.7
2019-02-04T02:38:10.482Z,25.6
2019-02-04T02:39:01.020Z,25.5
2019-02-04T02:39:50.322Z,25.4
2019-02-04T02:40:41.490Z,25.3
2019-02-04T02:41:31.879Z,25.3
2019-02-04T02:42:21.207Z,25.2
2019-02-04T02:43:14.436Z,25.2
2019-02-04T02:44:03.928Z,25.1
2019-02-04T02:44:51.117Z,25.1
2019-02-04T02:45:41.787Z,25.1
2019-02-04T02:46:31.556Z,25.1
2019-02-04T02:47:22.186Z,25.1
2019-02-04T02:48:10.780Z,25
2019-02-04T02:49:01.030Z,24.9
2019-02-04T02:49:52.362Z,24.9
2019-02-04T02:50:42.124Z,25
2019-02-04T02:51:31.900Z,25.1
2019-02-04T02:52:22.547Z,25.1
2019-02-04T02:53:14.928Z,25.1
2019-02-04T02:54:02.598Z,25.3
2019-02-04T02:54:52.255Z,25.4
2019-02-04T02:55:42.146Z,25.5
2019-02-04T02:56:32.356Z,25.6
2019-02-04T02:57:22.552Z,25.8
2019-02-04T02:58:12.887Z,25.9
2019-02-04T02:59:03.378Z,25.9
2019-02-04T02:59:53.029Z,26.1
2019-02-04T03:00:42.063Z,26.2
2019-02-04T03:01:32.850Z,26.3
2019-02-04T03:02:25.873Z,26.2
2019-02-04T03:03:13.338Z,26.1
2019-02-04T03:04:03.310Z,26
2019-02-04T03:04:53.373Z,25.9
2019-02-04T03:08:25.944Z,25.4
2019-02-04T03:09:16.442Z,25.4
2019-02-04T03:10:05.513Z,25.3
2019-02-04T03:10:55.787Z,25.3
2019-02-04T03:11:45.504Z,25.3
2019-02-04T03:12:37.943Z,25.2
2019-02-04T03:13:25.880Z,25.1
2019-02-04T03:14:16.020Z,25.1
2019-02-04T03:15:06.504Z,25.1
2019-02-04T03:15:55.789Z,25.1
2019-02-04T03:16:45.842Z,25.1
2019-02-04T03:17:35.488Z,24.9
2019-02-04T03:18:27.865Z,24.9
2019-02-04T03:19:16.302Z,25
2019-02-04T03:20:05.877Z,25
2019-02-04T03:20:55.865Z,25.1
2019-02-04T03:21:47.874Z,25.2
2019-02-04T03:22:36.367Z,25.3
2019-02-04T03:23:26.688Z,25.4
2019-02-04T03:24:16.199Z,25.4
2019-02-04T03:25:06.887Z,25.6
2019-02-04T03:25:56.590Z,25.8
2019-02-04T03:26:47.222Z,25.9
2019-02-04T03:27:38.574Z,26
2019-02-04T03:28:26.629Z,26.1
2019-02-04T03:29:16.963Z,26.3
2019-02-04T03:30:07.105Z,26.3
2019-02-04T03:30:58.729Z,26.3
2019-02-04T03:31:54.320Z,26.1
2019-02-04T03:32:37.145Z,26
2019-02-04T03:33:28.062Z,25.9
2019-02-04T03:34:17.263Z,25.8
2019-02-04T03:35:07.205Z,25.7
2019-02-04T03:35:56.362Z,25.6
2019-02-04T03:36:48.427Z,25.6
2019-02-04T03:37:37.381Z,25.4
2019-02-04T03:38:27.157Z,25.4
2019-02-04T03:39:17.462Z,25.4
2019-02-04T03:40:10.309Z,25.3
2019-02-04T03:40:57.298Z,25.3
2019-02-04T03:41:47.856Z,25.3
2019-02-04T03:42:37.368Z,25.2
2019-02-04T03:43:27.974Z,25.2
2019-02-04T03:44:17.805Z,25.1
2019-02-04T03:45:08.248Z,25.1
2019-02-04T03:45:57.983Z,25
2019-02-04T03:46:47.913Z,25
2019-02-04T03:47:36.775Z,25
2019-02-04T03:48:27.346Z,25.1
2019-02-04T03:49:20.779Z,25.1
2019-02-04T03:50:08.267Z,25.2
2019-02-04T03:50:58.044Z,25.3
2019-02-04T03:51:47.567Z,25.4
2019-02-04T03:52:39.316Z,25.5
2019-02-04T03:53:28.345Z,25.7
2019-02-04T03:54:18.842Z,25.8
2019-02-04T03:55:08.496Z,25.9
2019-02-04T03:55:58.617Z,26.1
2019-02-04T03:56:48.327Z,26.1
2019-02-04T03:57:38.590Z,26.3
2019-02-04T03:58:30.445Z,26.3
2019-02-04T03:59:19.033Z,26.3
2019-02-04T04:00:08.699Z,26.2
2019-02-04T04:00:58.611Z,26.1
2019-02-04T04:01:50.659Z,25.9
2019-02-04T04:02:38.238Z,25.9
2019-02-04T04:03:29.182Z,25.8
2019-02-04T04:04:18.472Z,25.7
2019-02-04T04:05:09.006Z,25.6
2019-02-04T04:05:59.033Z,25.5
2019-02-04T04:06:48.542Z,25.4
2019-02-04T04:07:40.090Z,25.4
2019-02-04T04:08:29.568Z,25.3
2019-02-04T04:09:18.995Z,25.3
2019-02-04T04:10:08.769Z,25.3
2019-02-04T04:11:01.551Z,25.2
2019-02-04T04:11:49.413Z,25.2
2019-02-04T04:12:39.474Z,25.1
2019-02-04T04:13:29.640Z,25.1
2019-02-04T04:14:19.864Z,25
2019-02-04T04:15:09.143Z,24.9
2019-02-04T04:16:00.006Z,24.9
2019-02-04T04:16:50.171Z,25
2019-02-04T04:17:39.958Z,25.1
2019-02-04T04:18:29.809Z,25.1
2019-02-04T04:19:19.988Z,25.2
2019-02-04T04:20:12.898Z,25.3
2019-02-04T04:21:00.290Z,25.4
2019-02-04T04:21:50.061Z,25.6
2019-02-04T04:22:40.956Z,25.7
2019-02-04T04:23:30.701Z,25.8
2019-02-04T04:24:20.643Z,25.9
2019-02-04T04:25:25.725Z,26
2019-02-04T04:26:01.703Z,26.1
2019-02-04T04:26:51.238Z,26.2
2019-02-04T04:27:40.858Z,26.3
2019-02-04T04:28:31.116Z,26.1
2019-02-04T04:29:24.147Z,26
2019-02-04T04:30:10.953Z,25.8
2019-02-04T04:31:01.216Z,25.8
2019-02-04T04:31:51.285Z,25.6
2019-02-04T04:32:41.080Z,25.5
2019-02-04T04:33:31.508Z,25.4
2019-02-04T04:34:21.309Z,25.3
2019-02-04T04:35:12.233Z,25.3
2019-02-04T04:36:01.595Z,25.2
2019-02-04T04:36:51.670Z,25.1
2019-02-04T04:37:41.520Z,25.1
2019-02-04T04:38:33.595Z,25.1
2019-02-04T04:39:21.607Z,25
2019-02-04T04:40:11.409Z,25
2019-02-04T04:41:02.228Z,24.9
2019-02-04T04:41:51.551Z,24.9
2019-02-04T04:42:41.824Z,24.9
2019-02-04T04:43:32.159Z,24.9
2019-02-04T04:44:23.074Z,24.9
2019-02-04T04:45:12.519Z,25
2019-02-04T04:46:02.286Z,25.1
2019-02-04T04:46:52.074Z,25.1
2019-02-04T04:47:45.140Z,25.2
2019-02-04T04:48:34.045Z,25.3
2019-02-04T04:49:22.073Z,25.4
2019-02-04T04:50:12.359Z,25.5
2019-02-04T04:51:01.600Z,25.7
2019-02-04T04:51:51.659Z,25.8
2019-02-04T04:52:42.316Z,25.9
2019-02-04T04:53:32.524Z,26
2019-02-04T04:54:22.591Z,26.1
2019-02-04T04:55:12.386Z,26.2
2019-02-04T04:56:02.524Z,26.2
2019-02-04T04:56:54.686Z,26.1
2019-02-04T04:57:42.877Z,26
2019-02-04T04:58:32.970Z,25.8
2019-02-04T04:59:22.758Z,25.8
2019-02-04T05:00:14.461Z,25.6
2019-02-04T05:01:03.368Z,25.5
2019-02-04T05:01:52.895Z,25.4
2019-02-04T05:02:43.664Z,25.3
2019-02-04T05:03:33.501Z,25.3
2019-02-04T05:04:22.698Z,25.2
2019-02-04T05:05:13.651Z,25.1
2019-02-04T05:06:05.937Z,25.1
2019-02-04T05:06:53.730Z,25.1
2019-02-04T05:07:43.498Z,25
2019-02-04T05:08:33.908Z,25
2019-02-04T05:09:25.706Z,24.9
2019-02-04T05:10:13.945Z,24.9
2019-02-04T05:11:03.747Z,24.9
2019-02-04T05:11:54.449Z,24.9
2019-02-04T05:12:43.872Z,24.8
2019-02-04T05:13:34.287Z,24.9
2019-02-04T05:14:23.982Z,24.9
2019-02-04T05:15:16.123Z,24.9
2019-02-04T05:16:04.356Z,25.1
2019-02-04T05:16:54.417Z,25.1
2019-02-04T05:17:44.502Z,25.2
2019-02-04T05:18:45.652Z,25.4
2019-02-04T05:19:24.352Z,25.5
2019-02-04T05:20:14.927Z,25.6
2019-02-04T05:21:04.835Z,25.8
2019-02-04T05:21:54.815Z,25.9
2019-02-04T05:22:44.877Z,25.9
2019-02-04T05:23:34.628Z,26.1
2019-02-04T05:24:26.397Z,26.1
2019-02-04T05:25:15.299Z,26.1
2019-02-04T05:26:04.527Z,26
2019-02-04T05:26:54.891Z,25.9
2019-02-04T05:27:47.887Z,25.8
2019-02-04T05:28:35.227Z,25.6
2019-02-04T05:29:25.047Z,25.5
2019-02-04T05:30:15.398Z,25.4
2019-02-04T05:31:06.097Z,25.3
2019-02-04T05:31:55.501Z,25.2
2019-02-04T05:32:45.243Z,25.1
2019-02-04T05:33:35.379Z,25.1
2019-02-04T05:34:25.909Z,25
2019-02-04T05:35:15.141Z,25
2019-02-04T05:36:06.043Z,24.9
2019-02-04T05:36:57.801Z,24.9
2019-02-04T05:37:45.886Z,24.9
2019-02-04T05:38:35.966Z,24.8
2019-02-04T05:39:25.980Z,24.9
2019-02-04T05:40:16.179Z,24.9
2019-02-04T05:41:06.126Z,24.8
2019-02-04T05:41:56.199Z,24.8
2019-02-04T05:42:46.305Z,24.8
2019-02-04T05:43:36.120Z,24.9
2019-02-04T05:44:26.048Z,24.9
2019-02-04T05:45:16.488Z,24.9
2019-02-04T05:46:08.353Z,25.1
2019-02-04T05:46:59.263Z,25.2
2019-02-04T05:47:46.310Z,25.3
2019-02-04T05:48:36.435Z,25.4
2019-02-04T05:49:28.047Z,25.6
2019-02-04T05:50:20.007Z,25.7
2019-02-04T05:51:06.537Z,25.8
2019-02-04T05:51:59.543Z,25.9
2019-02-04T05:52:46.362Z,26.1
2019-02-04T05:53:36.477Z,26.1
2019-02-04T05:54:26.524Z,26.2
2019-02-04T05:55:19.750Z,26.1
2019-02-04T05:56:06.462Z,26
2019-02-04T05:56:56.388Z,25.9
2019-02-04T05:57:47.055Z,25.8
2019-02-04T05:58:42.197Z,25.6
2019-02-04T05:59:27.399Z,25.5
2019-02-04T06:00:17.185Z,25.4
2019-02-04T06:01:07.776Z,25.3
2019-02-04T06:01:57.009Z,25.3
2019-02-04T06:02:47.629Z,25.2
2019-02-04T06:03:37.380Z,25.1
2019-02-04T06:06:25.321Z,25
2019-02-04T06:07:18.136Z,25
2019-02-04T06:08:04.869Z,24.9
2019-02-04T06:08:56.471Z,24.9
2019-02-04T06:09:45.891Z,24.9
2019-02-04T06:10:35.027Z,24.9
2019-02-04T06:11:25.666Z,24.8
2019-02-04T06:12:15.543Z,24.8
2019-02-04T06:13:20.503Z,24.8
2019-02-04T06:14:09.458Z,24.9
2019-02-04T06:14:48.163Z,25
2019-02-04T06:15:35.146Z,25.1
2019-02-04T06:16:25.719Z,25.1
2019-02-04T06:17:15.788Z,25.3
2019-02-04T06:18:07.000Z,25.4
2019-02-04T06:19:07.261Z,25.5
2019-02-04T06:19:45.416Z,25.7
2019-02-04T06:20:35.735Z,25.8
2019-02-04T06:21:26.050Z,25.9
2019-02-04T06:22:15.673Z,25.9
2019-02-04T06:23:06.158Z,26.1
2019-02-04T06:23:57.601Z,26.1
2019-02-04T06:24:46.123Z,26.1
2019-02-04T06:25:36.200Z,26
2019-02-04T06:26:26.225Z,25.9
2019-02-04T06:27:20.186Z,25.8
2019-02-04T06:28:06.110Z,25.6
2019-02-04T06:28:56.344Z,25.6
2019-02-04T06:29:46.972Z,25.4
2019-02-04T06:30:36.974Z,25.4
2019-02-04T06:31:27.149Z,25.3
2019-02-04T06:32:17.405Z,25.2
2019-02-04T06:33:08.159Z,25.1
2019-02-04T06:33:57.233Z,25.1
2019-02-04T06:35:21.420Z,25
2019-02-04T06:35:36.767Z,24.9
2019-02-04T06:36:28.807Z,24.9
2019-02-04T06:37:17.140Z,24.9
2019-02-04T06:38:07.623Z,24.9
2019-02-04T06:38:56.724Z,24.9
2019-02-04T06:39:47.509Z,24.8
2019-02-04T06:40:37.268Z,24.8
2019-02-04T06:41:28.032Z,24.8
2019-02-04T06:42:19.002Z,24.9
2019-02-04T06:43:07.587Z,24.9
2019-02-04T06:43:57.629Z,25
2019-02-04T06:44:48.226Z,25.1
2019-02-04T06:45:40.614Z,25.2
2019-02-04T06:46:27.872Z,25.3
2019-02-04T06:47:17.847Z,25.4
2019-02-04T06:48:07.803Z,25.6
2019-02-04T06:48:57.649Z,25.7
2019-02-04T06:49:48.076Z,25.8
2019-02-04T06:50:38.041Z,25.9
2019-02-04T06:51:28.911Z,26.1
2019-02-04T06:52:18.034Z,26.1
2019-02-04T06:53:09.168Z,26.2
2019-02-04T06:53:58.038Z,26.1
2019-02-04T06:54:51.438Z,25.9
2019-02-04T06:55:37.753Z,25.8
2019-02-04T06:56:28.803Z,25.7
2019-02-04T06:57:18.046Z,25.6
2019-02-04T06:58:23.349Z,25.5
2019-02-04T06:58:58.123Z,25.4
2019-02-04T06:59:48.468Z,25.3
2019-02-04T07:00:40.060Z,25.2
2019-02-04T07:01:29.141Z,25.2
2019-02-04T07:02:18.128Z,25.1
2019-02-04T07:03:08.800Z,25.1
2019-02-04T07:04:02.083Z,25
2019-02-04T07:06:26.288Z,24.9
2019-02-04T07:07:17.710Z,24.9
2019-02-04T07:08:05.142Z,24.9
2019-02-04T07:08:55.497Z,24.8
2019-02-04T07:09:48.826Z,24.8
2019-02-04T07:10:35.407Z,24.9
2019-02-04T07:11:25.895Z,24.9
2019-02-04T07:12:15.727Z,24.9
2019-02-04T07:13:05.002Z,25
2019-02-04T07:13:55.535Z,25.1
2019-02-04T07:14:45.347Z,25.3
2019-02-04T07:15:36.629Z,25.4
2019-02-04T07:16:26.449Z,25.4
2019-02-04T07:17:15.447Z,25.6
2019-02-04T07:18:09.312Z,25.8
2019-02-04T07:18:58.582Z,25.9
2019-02-04T07:19:45.161Z,25.9
2019-02-04T07:20:35.284Z,26.1
2019-02-04T07:21:27.696Z,26.1
2019-02-04T07:22:15.321Z,26.2
2019-02-04T07:23:05.521Z,26.1
2019-02-04T07:23:56.192Z,26
2019-02-04T07:24:50.819Z,25.8
2019-02-04T07:25:36.072Z,25.8
2019-02-04T07:26:26.209Z,25.6
2019-02-04T07:27:15.611Z,25.6
2019-02-04T07:28:08.666Z,25.4
2019-02-04T07:28:56.539Z,25.3
2019-02-04T07:29:46.881Z,25.3
2019-02-04T07:30:37.209Z,25.2
2019-02-04T07:31:26.268Z,25.1
2019-02-04T07:32:16.526Z,25.1
2019-02-04T07:33:06.292Z,25
2019-02-04T07:33:58.613Z,25
2019-02-04T07:34:47.317Z,24.9
2019-02-04T07:35:37.253Z,24.9
2019-02-04T07:36:27.313Z,24.9
2019-02-04T07:37:17.823Z,24.9
2019-02-04T07:38:06.930Z,24.9
2019-02-04T07:38:57.230Z,24.8
2019-02-04T07:39:46.987Z,24.9
2019-02-04T07:40:36.265Z,24.9
2019-02-04T07:41:27.865Z,25
2019-02-04T07:42:17.815Z,25.1
2019-02-04T07:43:10.313Z,25.1
2019-02-04T07:43:57.423Z,25.3
2019-02-04T07:44:48.210Z,25.4
2019-02-04T07:45:37.143Z,25.5
2019-02-04T07:46:32.987Z,25.6
2019-02-04T07:47:17.295Z,25.8
2019-02-04T07:48:07.112Z,25.8
2019-02-04T07:48:57.140Z,26
2019-02-04T07:49:47.762Z,26.1
2019-02-04T07:50:38.117Z,26.1
2019-02-04T07:51:27.870Z,26.1
2019-02-04T07:52:20.105Z,25.9
2019-02-04T07:53:08.012Z,25.8
2019-02-04T07:53:57.784Z,25.7
2019-02-04T07:54:48.602Z,25.6
2019-02-04T07:55:39.346Z,25.5
2019-02-04T07:56:27.877Z,25.4
2019-02-04T07:57:18.257Z,25.3
2019-02-04T07:58:08.026Z,25.3
2019-02-04T07:58:58.882Z,25.1
2019-02-04T07:59:48.389Z,25.1
2019-02-04T08:00:38.724Z,25.1
2019-02-04T08:01:30.939Z,25
2019-02-04T08:02:18.164Z,25
2019-02-04T08:03:09.161Z,24.9
2019-02-04T08:03:58.943Z,24.9
2019-02-04T08:04:50.926Z,24.9
2019-02-04T08:05:37.984Z,24.9
2019-02-04T08:06:29.118Z,24.9
2019-02-04T08:07:18.317Z,24.8
2019-02-04T08:08:09.506Z,24.8
2019-02-04T08:08:59.156Z,24.9
2019-02-04T08:09:49.214Z,24.9
2019-02-04T08:10:41.496Z,25
2019-02-04T08:11:28.951Z,25.1
2019-02-04T08:12:18.991Z,25.2
2019-02-04T08:13:08.241Z,25.3
2019-02-04T08:14:00.980Z,25.4
2019-02-04T08:14:52.672Z,25.6
2019-02-04T08:15:39.298Z,25.7
2019-02-04T08:16:29.628Z,25.8
2019-02-04T08:17:19.680Z,25.9
2019-02-04T08:18:09.792Z,26.1
2019-02-04T08:18:59.510Z,26.1
2019-02-04T08:19:54.215Z,26.1
2019-02-04T08:20:39.966Z,25.9
2019-02-04T08:21:29.000Z,25.9
2019-02-04T08:22:19.805Z,25.8
2019-02-04T08:23:11.738Z,25.6
2019-02-04T08:24:00.345Z,25.5
2019-02-04T08:24:50.393Z,25.4
2019-02-04T08:25:40.547Z,25.3
2019-02-04T08:26:30.123Z,25.3
2019-02-04T08:27:20.680Z,25.2
2019-02-04T08:28:11.175Z,25.1
2019-02-04T08:29:02.398Z,25.1
2019-02-04T08:29:51.377Z,25.1
2019-02-04T08:30:44.806Z,25
2019-02-04T08:31:30.399Z,25
2019-02-04T08:32:23.508Z,24.9
2019-02-04T08:33:10.777Z,24.9
2019-02-04T08:34:00.829Z,24.9
2019-02-04T08:34:51.246Z,24.9
2019-02-04T08:35:41.437Z,24.8
2019-02-04T08:36:43.023Z,24.9
2019-02-04T08:37:21.115Z,24.9
2019-02-04T08:38:13.243Z,24.9
2019-02-04T08:39:01.240Z,25
2019-02-04T08:39:50.581Z,25.1
2019-02-04T08:40:40.843Z,25.2
2019-02-04T08:41:31.852Z,25.3
2019-02-04T08:42:21.556Z,25.4
2019-02-04T08:43:11.929Z,25.6
2019-02-04T08:44:01.847Z,25.7
2019-02-04T08:44:51.386Z,25.8
2019-02-04T08:45:41.563Z,25.9
2019-02-04T08:46:31.546Z,26.1
2019-02-04T08:47:30.626Z,26.1
2019-02-04T08:48:11.576Z,26.1
2019-02-04T08:49:01.924Z,25.9
2019-02-04T08:50:06.121Z,25.8
2019-02-04T08:50:42.114Z,25.6
2019-02-04T08:51:32.328Z,25.6
2019-02-04T08:52:22.483Z,25.5
2019-02-04T08:53:14.178Z,25.4
2019-02-04T08:54:02.788Z,25.3
2019-02-04T08:54:52.613Z,25.3
2019-02-04T08:55:42.108Z,25.1
2019-02-04T08:56:32.840Z,25.1
2019-02-04T08:57:22.273Z,25.1
2019-02-04T08:58:13.160Z,25.1
2019-02-04T08:59:02.702Z,25
2019-02-04T08:59:52.488Z,25
2019-02-04T09:00:42.876Z,25
2019-02-04T09:01:33.083Z,25
2019-02-04T09:02:25.999Z,24.9
2019-02-04T09:03:13.107Z,24.9
2019-02-04T09:04:03.737Z,24.9
2019-02-04T09:04:53.293Z,24.9
2019-02-04T09:05:43.307Z,24.9
2019-02-04T09:06:33.480Z,24.9
2019-02-04T09:07:23.589Z,25
2019-02-04T09:08:14.754Z,25.1
2019-02-04T09:09:03.829Z,25.1
2019-02-04T09:09:52.800Z,25.3
2019-02-04T09:10:43.810Z,25.4
2019-02-04T09:11:35.537Z,25.5
2019-02-04T09:12:22.810Z,25.7
2019-02-04T09:13:12.815Z,25.8
2019-02-04T09:14:03.907Z,25.9
2019-02-04T09:14:53.924Z,26.1
2019-02-04T09:15:43.834Z,26.1
2019-02-04T09:16:33.597Z,26
2019-02-04T09:17:25.089Z,25.9
2019-02-04T09:18:12.691Z,25.8
2019-02-04T09:19:04.267Z,25.7
2019-02-04T09:19:53.638Z,25.6
2019-02-04T09:20:45.629Z,25.5
2019-02-04T09:21:33.488Z,25.4
2019-02-04T09:22:24.556Z,25.3
2019-02-04T09:23:14.759Z,25.3
2019-02-04T09:24:04.037Z,25.2
2019-02-04T09:24:54.109Z,25.1
2019-02-04T09:25:44.198Z,25.1
2019-02-04T09:26:36.922Z,25.1
2019-02-04T09:27:24.848Z,25
2019-02-04T09:28:14.401Z,25
2019-02-04T09:29:05.222Z,24.9
2019-02-04T09:29:55.795Z,24.9
2019-02-04T09:30:45.346Z,24.9
2019-02-04T09:31:34.813Z,24.9
2019-02-04T09:32:26.201Z,24.9
2019-02-04T09:33:15.258Z,24.9
2019-02-04T09:34:05.248Z,24.9
2019-02-04T09:34:55.075Z,25
2019-02-04T09:35:47.208Z,25.1
2019-02-04T09:36:35.758Z,25.1
2019-02-04T09:37:25.681Z,25.3
2019-02-04T09:38:15.439Z,25.4
2019-02-04T09:39:05.631Z,25.5
2019-02-04T09:39:55.636Z,25.6
2019-02-04T09:40:45.646Z,25.8
2019-02-04T09:41:36.691Z,25.9
2019-02-04T09:42:26.034Z,26
2019-02-04T09:43:16.581Z,26.1
2019-02-04T09:44:05.563Z,26.1
2019-02-04T09:44:58.407Z,25.9
2019-02-04T09:45:46.533Z,25.8
2019-02-04T09:46:36.227Z,25.7
2019-02-04T09:47:25.907Z,25.6
2019-02-04T09:48:16.100Z,25.5
2019-02-04T09:49:05.692Z,25.4
2019-02-04T09:49:56.200Z,25.3
2019-02-04T09:50:47.629Z,25.3
2019-02-04T09:51:36.067Z,25.2
2019-02-04T09:52:25.533Z,25.1
2019-02-04T09:53:16.789Z,25.1
2019-02-04T09:54:08.306Z,25.1
2019-02-04T09:54:56.479Z,25.1
2019-02-04T09:55:47.144Z,25
2019-02-04T09:56:36.894Z,25
2019-02-04T09:57:27.286Z,24.9
2019-02-04T09:58:16.707Z,24.9
2019-02-04T09:59:07.186Z,24.9
2019-02-04T10:00:00.820Z,24.9
2019-02-04T10:00:47.521Z,24.9
2019-02-04T10:01:37.384Z,24.9
2019-02-04T10:02:27.165Z,25
2019-02-04T10:03:19.222Z,25.1
2019-02-04T10:04:07.631Z,25.2
2019-02-04T10:04:57.605Z,25.3
2019-02-04T10:07:23.863Z,25.6
2019-02-04T10:08:14.501Z,25.8
2019-02-04T10:09:07.002Z,25.9
2019-02-04T10:09:54.516Z,26.1
2019-02-04T10:10:44.625Z,26.1
2019-02-04T10:11:34.903Z,26.1
2019-02-04T10:12:25.853Z,25.9
2019-02-04T10:13:15.370Z,25.8
2019-02-04T10:14:05.298Z,25.7
2019-02-04T10:14:54.488Z,25.6
2019-02-04T10:15:48.753Z,25.5
2019-02-04T10:16:35.511Z,25.4
2019-02-04T10:17:25.850Z,25.3
2019-02-04T10:18:17.418Z,25.3
2019-02-04T10:19:05.594Z,25.2
2019-02-04T10:19:56.544Z,25.1
2019-02-04T10:20:45.789Z,25.1
2019-02-04T10:21:38.463Z,25.1
2019-02-04T10:22:26.622Z,25.1
2019-02-04T10:23:16.175Z,25
2019-02-04T10:24:06.734Z,25
2019-02-04T10:24:56.757Z,25
2019-02-04T10:25:46.513Z,24.9
2019-02-04T10:26:36.384Z,24.9
2019-02-04T10:27:28.475Z,24.9
2019-02-04T10:28:16.447Z,24.9
2019-02-04T10:29:06.774Z,25
2019-02-04T10:29:57.426Z,25.1
2019-02-04T10:30:48.669Z,25.2
2019-02-04T10:31:36.381Z,25.3
2019-02-04T10:32:26.320Z,25.4
2019-02-04T10:33:17.296Z,25.5
2019-02-04T10:34:07.721Z,25.7
2019-02-04T10:34:56.816Z,25.8
2019-02-04T10:35:47.615Z,25.9
2019-02-04T10:36:38.123Z,26.1
2019-02-04T10:37:27.986Z,26.1
2019-02-04T10:38:21.034Z,26.1
2019-02-04T10:39:07.362Z,25.9
2019-02-04T10:39:59.736Z,25.8
2019-02-04T10:40:47.626Z,25.8
2019-02-04T10:41:36.860Z,25.6
2019-02-04T10:42:27.856Z,25.5
2019-02-04T10:43:17.469Z,25.4
2019-02-04T10:44:07.606Z,25.3
2019-02-04T10:44:57.072Z,25.3
2019-02-04T10:45:48.996Z,25.2
2019-02-04T10:46:37.825Z,25.1
2019-02-04T10:47:27.730Z,25.1
2019-02-04T10:48:19.007Z,25.1
2019-02-04T10:49:09.795Z,25.1
2019-02-04T10:49:58.102Z,25
2019-02-04T10:50:54.676Z,25
2019-02-04T10:51:38.778Z,25
2019-02-04T10:52:28.618Z,24.9
2019-02-04T10:53:18.659Z,24.9
2019-02-04T10:54:09.244Z,24.9
2019-02-04T10:55:00.460Z,25
2019-02-04T10:55:49.015Z,25
2019-02-04T10:56:38.557Z,25.1
2019-02-04T10:57:41.481Z,25.2
2019-02-04T10:58:20.507Z,25.3
2019-02-04T10:59:09.137Z,25.4
2019-02-04T10:59:58.472Z,25.6
2019-02-04T11:00:49.481Z,25.7
2019-02-04T11:01:39.208Z,25.8
2019-02-04T11:02:29.383Z,25.9
2019-02-04T11:03:21.520Z,26.1
2019-02-04T11:04:10.356Z,26.1
2019-02-04T11:04:59.102Z,26
2019-02-04T11:05:50.125Z,25.9
2019-02-04T11:06:39.159Z,25.8
2019-02-04T11:07:31.897Z,25.7
2019-02-04T11:08:20.213Z,25.6
2019-02-04T11:09:09.775Z,25.5
2019-02-04T11:09:59.997Z,25.4
2019-02-04T11:10:49.314Z,25.3
2019-02-04T11:11:40.001Z,25.3
2019-02-04T11:12:29.820Z,25.2
2019-02-04T11:13:20.843Z,25.1
2019-02-04T11:14:09.898Z,25.1
2019-02-04T11:14:59.146Z,25.1
2019-02-04T11:15:50.162Z,25.1
2019-02-04T11:16:42.691Z,25
2019-02-04T11:17:29.588Z,25
2019-02-04T11:18:20.538Z,25
2019-02-04T11:19:09.356Z,25